createdAt,value
2018-05-18T06:21:36.486Z,20.98
2018-05-18T06:22:08.760Z,21.01
2018-05-18T06:22:40.944Z,21.03
2018-05-18T06:23:12.960Z,21.03
2018-05-18T06:23:45.089Z,21.08
2018-05-18T06:24:17.121Z,21.04
2018-05-18T06:24:49.199Z,21.08
2018-05-18T06:25:21.297Z,21.03
2018-05-18T06:25:53.406Z,21.01
2018-05-18T06:26:25.575Z,21.08
2018-05-18T06:26:57.674Z,21.08
2018-05-18T06:28:49.091Z,21.23
2018-05-18T06:30:40.946Z,21.19
2018-05-18T06:31:13.088Z,21.22
2018-05-18T06:31:45.166Z,21.21
2018-05-18T06:32:17.740Z,21.19
2018-05-18T06:32:49.863Z,21.19
2018-05-18T06:33:21.983Z,21.19
2018-05-18T06:33:54.051Z,21.3
2018-05-18T06:34:26.139Z,21.31
2018-05-18T06:34:58.458Z,21.18
2018-05-18T06:35:30.364Z,21.23
2018-05-18T06:36:02.430Z,21.23
2018-05-18T06:36:34.501Z,21.27
2018-05-18T06:37:06.607Z,21.25
2018-05-18T06:37:38.725Z,21.28
2018-05-18T06:38:10.787Z,21.31
2018-05-18T06:38:42.877Z,21.3
2018-05-18T06:39:14.961Z,21.34
2018-05-18T06:39:47.094Z,21.36
2018-05-18T06:40:19.234Z,21.37
2018-05-18T06:40:51.342Z,21.31
2018-05-18T06:41:23.213Z,21.31
2018-05-18T06:43:14.617Z,21.34
2018-05-18T06:43:46.697Z,21.36
2018-05-18T06:44:19.418Z,21.45
2018-05-18T06:44:51.510Z,21.36
2018-05-18T06:45:23.648Z,21.41
2018-05-18T06:45:55.720Z,21.45
2018-05-18T06:46:27.762Z,21.52
2018-05-18T06:46:59.833Z,21.45
2018-05-18T06:47:31.987Z,21.46
2018-05-18T06:48:04.098Z,21.49
2018-05-18T06:48:36.162Z,21.49
2018-05-18T06:49:08.233Z,21.48
2018-05-18T06:52:19.129Z,21.58
2018-05-18T06:52:51.225Z,21.62
2018-05-18T06:53:23.330Z,21.55
2018-05-18T06:53:55.423Z,21.64
2018-05-18T06:54:27.504Z,21.61
2018-05-18T06:54:59.594Z,21.67
2018-05-18T06:55:31.697Z,21.66
2018-05-18T06:56:03.762Z,21.62
2018-05-18T06:56:35.873Z,21.66
2018-05-18T06:58:27.451Z,21.74
2018-05-18T06:58:59.547Z,21.76
2018-05-18T06:59:31.632Z,21.78
2018-05-18T07:00:03.740Z,21.74
2018-05-18T07:00:35.883Z,21.76
2018-05-18T07:01:07.991Z,21.74
2018-05-18T07:01:40.089Z,21.73
2018-05-18T07:02:12.169Z,21.77
2018-05-18T07:02:44.228Z,21.78
2018-05-18T07:04:35.617Z,21.78
2018-05-18T07:05:07.702Z,21.78
2018-05-18T07:05:39.856Z,21.82
2018-05-18T07:06:11.976Z,21.86
2018-05-18T07:06:44.091Z,21.86
2018-05-18T07:08:35.638Z,21.92
2018-05-18T07:09:07.737Z,21.93
2018-05-18T07:10:59.301Z,21.99
2018-05-18T07:11:31.373Z,21.99
2018-05-18T07:12:03.497Z,21.99
2018-05-18T07:12:35.599Z,21.96
2018-05-18T07:13:07.678Z,22.02
2018-05-18T07:14:59.141Z,22.05
2018-05-18T07:15:31.199Z,22.09
2018-05-18T07:16:03.305Z,22.11
2018-05-18T07:16:35.502Z,22.12
2018-05-18T07:17:07.501Z,22.11
2018-05-18T07:17:39.580Z,22.09
2018-05-18T07:18:11.677Z,22.12
2018-05-18T07:18:43.757Z,22.2
2018-05-18T07:20:35.374Z,22.2
2018-05-18T07:21:07.488Z,22.08
2018-05-18T07:21:39.612Z,22.15
2018-05-18T07:23:31.335Z,22.31
2018-05-18T07:24:03.430Z,22.24
2018-05-18T07:24:35.536Z,22.29
2018-05-18T07:25:07.689Z,22.33
2018-05-18T07:25:39.786Z,22.24
2018-05-18T07:26:11.884Z,22.24
2018-05-18T07:26:43.965Z,22.34
2018-05-18T07:27:16.057Z,22.31
2018-05-18T07:27:48.152Z,22.31
2018-05-18T07:29:39.552Z,22.33
2018-05-18T07:30:11.663Z,22.45
2018-05-18T07:32:03.152Z,22.39
2018-05-18T07:32:35.247Z,22.46
2018-05-18T07:34:26.636Z,22.51
2018-05-18T07:34:58.844Z,22.49
2018-05-18T07:35:30.969Z,22.48
2018-05-18T07:36:03.340Z,22.6
2018-05-18T07:36:35.443Z,22.6
2018-05-18T07:37:07.520Z,22.61
2018-05-18T07:37:39.993Z,22.6
2018-05-18T07:38:12.242Z,22.55
2018-05-18T07:38:44.360Z,22.55
2018-05-18T07:39:16.622Z,22.55
2018-05-18T07:39:48.728Z,22.64
2018-05-18T07:40:20.797Z,22.54
2018-05-18T07:40:52.882Z,22.57
2018-05-18T07:41:25.002Z,22.61
2018-05-18T07:41:57.092Z,22.59
2018-05-18T07:42:29.208Z,22.6
2018-05-18T07:43:01.283Z,22.64
2018-05-18T07:43:33.510Z,22.73
2018-05-18T07:44:05.622Z,22.69
2018-05-18T07:44:37.717Z,22.75
2018-05-18T07:45:09.816Z,22.7
2018-05-18T07:45:41.875Z,22.76
2018-05-18T07:46:13.974Z,22.7
2018-05-18T07:46:46.085Z,22.71
2018-05-18T07:47:18.176Z,22.82
2018-05-18T07:47:50.264Z,22.84
2018-05-18T07:48:22.370Z,22.84
2018-05-18T07:48:54.474Z,22.79
2018-05-18T07:50:46.077Z,22.79
2018-05-18T07:51:18.177Z,22.79
2018-05-18T07:51:50.271Z,22.89
2018-05-18T07:52:22.360Z,22.92
2018-05-18T07:52:54.425Z,22.86
2018-05-18T07:53:26.534Z,22.96
2018-05-18T07:53:58.634Z,22.94
2018-05-18T07:54:30.734Z,22.89
2018-05-18T07:56:22.542Z,23.03
2018-05-18T07:56:54.613Z,23
2018-05-18T07:57:26.695Z,23.06
2018-05-18T08:00:38.003Z,23.1
2018-05-18T08:01:10.097Z,23.03
2018-05-18T08:01:42.174Z,23.01
2018-05-18T08:02:14.266Z,23.15
2018-05-18T08:02:46.344Z,23.06
2018-05-18T08:04:37.670Z,23.1
2018-05-18T08:06:29.164Z,23.1
2018-05-18T08:07:01.289Z,23.04
2018-05-18T08:07:33.387Z,23.14
2018-05-18T08:08:05.486Z,23.21
2018-05-18T08:08:37.551Z,23.18
2018-05-18T08:09:09.642Z,23.22
2018-05-18T08:09:41.735Z,23.18
2018-05-18T08:10:13.846Z,23.15
2018-05-18T08:10:45.926Z,23.16
2018-05-18T08:11:18.010Z,23.21
2018-05-18T08:11:49.985Z,23.24
2018-05-18T08:12:22.076Z,23.26
2018-05-18T08:12:54.187Z,23.25
2018-05-18T08:13:26.291Z,23.19
2018-05-18T08:13:58.389Z,23.25
2018-05-18T08:14:30.477Z,23.21
2018-05-18T08:16:22.176Z,23.26
2018-05-18T08:16:54.229Z,23.29
2018-05-18T08:17:26.331Z,23.25
2018-05-18T08:17:58.428Z,23.32
2018-05-18T08:18:30.493Z,23.28
2018-05-18T08:20:23.718Z,23.32
2018-05-18T08:20:57.019Z,23.34
2018-05-18T08:24:08.099Z,23.29
2018-05-18T08:24:40.177Z,23.37
2018-05-18T08:25:12.254Z,23.42
2018-05-18T08:25:44.366Z,23.45
2018-05-18T08:26:16.560Z,23.47
2018-05-18T08:26:48.673Z,23.52
2018-05-18T08:27:20.769Z,23.53
2018-05-18T08:27:52.918Z,23.6
2018-05-18T08:28:24.996Z,23.59
2018-05-18T08:28:57.141Z,23.59
2018-05-18T08:29:29.294Z,23.63
2018-05-18T08:30:01.374Z,23.62
2018-05-18T08:30:33.460Z,23.67
2018-05-18T08:31:05.620Z,23.63
2018-05-18T08:31:37.727Z,23.71
2018-05-18T08:33:29.539Z,23.72
2018-05-18T08:34:04.489Z,23.78
2018-05-18T08:34:38.757Z,23.75
2018-05-18T08:35:12.050Z,23.82
2018-05-18T08:38:25.213Z,23.85
2018-05-18T08:38:57.323Z,23.77
2018-05-18T08:39:29.484Z,23.75
2018-05-18T08:40:01.563Z,23.77
2018-05-18T08:40:33.669Z,23.96
2018-05-18T08:42:25.021Z,23.87
2018-05-18T08:44:16.600Z,23.93
2018-05-18T08:44:49.144Z,23.92
2018-05-18T08:45:21.237Z,23.96
2018-05-18T08:48:32.197Z,24.09
2018-05-18T08:49:04.287Z,24.04
2018-05-18T08:49:36.373Z,24.11
2018-05-18T08:50:11.079Z,24.04
2018-05-18T08:52:02.637Z,24.09
2018-05-18T08:52:34.937Z,24.09
2018-05-18T08:53:07.041Z,24.12
2018-05-18T08:53:39.106Z,24.12
2018-05-18T08:54:11.331Z,24.18
2018-05-18T08:54:43.422Z,24.04
2018-05-18T08:55:15.509Z,24.14
2018-05-18T08:57:06.862Z,24.09
2018-05-18T08:57:38.929Z,24.19
2018-05-18T08:58:11.013Z,24.18
2018-05-18T08:58:43.095Z,24.09
2018-05-18T08:59:15.199Z,24.09
2018-05-18T08:59:47.302Z,24.14
2018-05-18T09:00:19.394Z,24.09
2018-05-18T09:00:51.472Z,24.07
2018-05-18T09:01:24.213Z,24.12
2018-05-18T09:01:56.384Z,24.08
2018-05-18T09:02:28.486Z,24.07
2018-05-18T09:03:00.600Z,24.09
2018-05-18T09:03:32.709Z,24.07
2018-05-18T09:04:04.888Z,24.08
2018-05-18T09:04:36.929Z,24.04
2018-05-18T09:05:08.995Z,24.11
2018-05-18T09:05:41.078Z,24.04
2018-05-18T09:06:13.186Z,24.03
2018-05-18T09:06:45.304Z,24.08
2018-05-18T09:07:17.425Z,24.09
2018-05-18T09:07:49.536Z,24.07
2018-05-18T09:08:21.631Z,24.12
2018-05-18T09:08:53.806Z,24.11
2018-05-18T09:09:26.482Z,24.14
2018-05-18T09:09:58.555Z,24.18
2018-05-18T09:10:30.630Z,24.15
2018-05-18T09:11:02.916Z,24.19
2018-05-18T09:11:35.882Z,24.17
2018-05-18T09:12:07.970Z,24.15
2018-05-18T09:12:42.568Z,24.19
2018-05-18T09:14:34.623Z,24.12
2018-05-18T09:15:06.721Z,24.26
2018-05-18T09:15:38.791Z,24.26
2018-05-18T09:16:10.811Z,24.22
2018-05-18T09:16:42.920Z,24.22
2018-05-18T09:17:15.016Z,24.21
2018-05-18T09:17:47.116Z,24.26
2018-05-18T09:18:19.213Z,24.29
2018-05-18T09:20:10.710Z,24.37
2018-05-18T09:20:42.795Z,24.46
2018-05-18T09:21:14.852Z,24.48
2018-05-18T09:21:46.953Z,24.51
2018-05-18T09:22:19.052Z,24.54
2018-05-18T09:22:51.325Z,24.63
2018-05-18T09:23:23.429Z,24.58
2018-05-18T09:26:34.636Z,24.87
2018-05-18T09:27:06.736Z,24.87
2018-05-18T09:27:38.836Z,24.85
2018-05-18T09:28:10.909Z,24.93
2018-05-18T09:28:42.999Z,24.89
2018-05-18T09:30:34.567Z,25
2018-05-18T09:31:06.640Z,25.02
2018-05-18T09:31:38.738Z,25
2018-05-18T09:32:10.850Z,25.04
2018-05-18T09:32:42.966Z,25.04
2018-05-18T09:33:15.063Z,25.05
2018-05-18T09:35:06.729Z,25
2018-05-18T09:35:38.758Z,25.05
2018-05-18T09:36:10.800Z,25.05
2018-05-18T09:36:42.848Z,25.09
2018-05-18T09:37:14.852Z,25.05
2018-05-18T09:37:46.869Z,24.97
2018-05-18T09:38:18.876Z,25.04
2018-05-18T09:38:50.897Z,25.09
2018-05-18T09:39:22.950Z,25.01
2018-05-18T09:39:55.167Z,25.07
2018-05-18T09:40:27.191Z,25.07
2018-05-18T09:40:59.208Z,25.11
2018-05-18T09:41:31.250Z,25.04
2018-05-18T09:42:03.273Z,25.02
2018-05-18T09:42:35.340Z,25.09
2018-05-18T09:43:07.332Z,25.09
2018-05-18T09:43:39.461Z,25.15
2018-05-18T09:44:12.114Z,25.14
2018-05-18T09:44:44.195Z,25.15
2018-05-18T09:45:16.304Z,25.12
2018-05-18T09:45:48.508Z,25.2
2018-05-18T09:46:20.622Z,25.24
2018-05-18T09:46:52.631Z,25.24
2018-05-18T09:47:24.700Z,25.24
2018-05-18T09:47:56.762Z,25.27
2018-05-18T09:48:28.728Z,25.22
2018-05-18T09:49:00.783Z,25.27
2018-05-18T09:49:32.863Z,25.3
2018-05-18T09:50:04.974Z,25.33
2018-05-18T09:50:37.000Z,25.3
2018-05-18T09:51:09.032Z,25.37
2018-05-18T09:51:41.176Z,25.38
2018-05-18T09:52:13.258Z,25.42
2018-05-18T09:52:45.298Z,25.47
2018-05-18T09:53:17.346Z,25.41
2018-05-18T09:53:49.385Z,25.49
2018-05-18T09:54:21.455Z,25.59
2018-05-18T09:54:54.406Z,25.56
2018-05-18T09:55:27.716Z,25.56
2018-05-18T09:56:00.069Z,25.64
2018-05-18T09:56:32.094Z,25.69
2018-05-18T09:57:04.091Z,25.67
2018-05-18T09:57:36.149Z,25.67
2018-05-18T09:58:08.120Z,25.7
2018-05-18T09:58:40.150Z,25.76
2018-05-18T09:59:12.194Z,25.78
2018-05-18T09:59:44.202Z,25.74
2018-05-18T10:00:16.250Z,25.74
2018-05-18T10:00:48.282Z,25.79
2018-05-18T10:01:20.384Z,25.82
2018-05-18T10:01:52.403Z,25.81
2018-05-18T10:02:24.453Z,25.78
2018-05-18T10:02:56.484Z,25.84
2018-05-18T10:03:28.652Z,25.79
2018-05-18T10:04:01.201Z,25.84
2018-05-18T10:04:33.206Z,25.86
2018-05-18T10:05:05.260Z,25.86
2018-05-18T10:05:37.288Z,25.84
2018-05-18T10:06:09.343Z,25.93
2018-05-18T10:06:41.393Z,25.89
2018-05-18T10:07:13.532Z,26.01
2018-05-18T10:07:45.593Z,26
2018-05-18T10:08:17.596Z,25.91
2018-05-18T10:08:49.619Z,25.99
2018-05-18T10:09:21.652Z,26.01
2018-05-18T10:09:53.662Z,25.94
2018-05-18T10:10:25.679Z,26.07
2018-05-18T10:10:57.677Z,26.07
2018-05-18T10:11:29.705Z,26.12
2018-05-18T10:12:01.724Z,26.11
2018-05-18T10:12:33.741Z,26.11
2018-05-18T10:13:05.843Z,26.12
2018-05-18T10:13:37.973Z,26.15
2018-05-18T10:14:09.992Z,26.11
2018-05-18T10:14:42.008Z,26.15
2018-05-18T10:15:14.058Z,26.16
2018-05-18T10:15:46.952Z,26.07
2018-05-18T10:16:18.942Z,26.09
2018-05-18T10:16:50.987Z,26.15
2018-05-18T10:17:23.059Z,26.12
2018-05-18T10:17:55.059Z,26.06
2018-05-18T10:18:27.153Z,26.12
2018-05-18T10:18:59.266Z,26.15
2018-05-18T10:19:31.265Z,26.17
2018-05-18T10:20:03.322Z,26.15
2018-05-18T10:20:35.395Z,26.19
2018-05-18T10:21:07.492Z,26.16
2018-05-18T10:21:39.627Z,26.23
2018-05-18T10:22:11.705Z,26.34
2018-05-18T10:22:43.708Z,26.32
2018-05-18T10:23:15.689Z,26.23
2018-05-18T10:23:47.726Z,26.34
2018-05-18T10:24:19.743Z,26.37
2018-05-18T10:24:51.737Z,26.35
2018-05-18T10:25:23.763Z,26.32
2018-05-18T10:25:55.792Z,26.3
2018-05-18T10:26:27.835Z,26.27
2018-05-18T10:26:59.893Z,26.38
2018-05-18T10:27:31.923Z,26.45
2018-05-18T10:28:04.076Z,26.52
2018-05-18T10:28:36.156Z,26.47
2018-05-18T10:29:08.221Z,26.6
2018-05-18T10:29:40.221Z,26.59
2018-05-18T10:30:12.242Z,26.56
2018-05-18T10:30:44.232Z,26.63
2018-05-18T10:31:16.253Z,26.71
2018-05-18T10:31:48.291Z,26.81
2018-05-18T10:32:20.386Z,26.78
2018-05-18T10:32:52.460Z,26.89
2018-05-18T10:33:24.609Z,26.79
2018-05-18T10:33:56.597Z,26.94
2018-05-18T10:34:28.647Z,26.9
2018-05-18T10:35:00.682Z,26.97
2018-05-18T10:35:32.694Z,27.04
2018-05-18T10:36:04.766Z,27.01
2018-05-18T10:36:36.924Z,27.06
2018-05-18T10:37:09.117Z,27.04
2018-05-18T10:37:41.133Z,27.08
2018-05-18T10:38:13.167Z,27.09
2018-05-18T10:38:45.187Z,27.13
2018-05-18T10:39:17.553Z,27.04
2018-05-18T10:39:49.636Z,27.12
2018-05-18T10:40:21.742Z,27.18
2018-05-18T10:40:53.771Z,27.08
2018-05-18T10:41:25.819Z,27.12
2018-05-18T10:41:58.011Z,27.19
2018-05-18T10:42:29.998Z,27.19
2018-05-18T10:43:02.106Z,27.23
2018-05-18T10:43:34.233Z,27.19
2018-05-18T10:44:06.254Z,27.13
2018-05-18T10:44:38.376Z,27.13
2018-05-18T10:45:10.978Z,27.13
2018-05-18T10:45:43.122Z,27.19
2018-05-18T10:46:15.194Z,27.23
2018-05-18T10:46:47.225Z,27.31
2018-05-18T10:47:19.286Z,27.31
2018-05-18T10:47:51.325Z,27.3
2018-05-18T10:48:23.377Z,27.38
2018-05-18T10:48:55.425Z,27.45
2018-05-18T10:49:28.091Z,27.42
2018-05-18T10:50:00.163Z,27.41
2018-05-18T10:50:32.311Z,27.48
2018-05-18T10:51:04.313Z,27.43
2018-05-18T10:51:36.339Z,27.46
2018-05-18T10:52:08.358Z,27.42
2018-05-18T10:52:40.424Z,27.48
2018-05-18T10:53:12.451Z,27.45
2018-05-18T10:53:44.489Z,27.51
2018-05-18T10:54:16.514Z,27.51
2018-05-18T10:54:48.685Z,27.46
2018-05-18T10:55:20.813Z,27.57
2018-05-18T10:55:52.913Z,27.57
2018-05-18T10:56:24.909Z,27.57
2018-05-18T10:56:56.984Z,27.59
2018-05-18T10:57:29.132Z,27.52
2018-05-18T10:58:01.195Z,27.59
2018-05-18T10:58:33.259Z,27.62
2018-05-18T10:59:05.401Z,27.59
2018-05-18T10:59:37.437Z,27.59
2018-05-18T11:00:09.450Z,27.64
2018-05-18T11:00:41.467Z,27.72
2018-05-18T11:01:13.491Z,27.69
2018-05-18T11:01:45.496Z,27.72
2018-05-18T11:02:17.564Z,27.76
2018-05-18T11:02:49.605Z,27.71
2018-05-18T11:03:21.663Z,27.71
2018-05-18T11:03:53.657Z,27.68
2018-05-18T11:04:25.797Z,27.79
2018-05-18T11:04:57.842Z,27.81
2018-05-18T11:05:29.881Z,27.87
2018-05-18T11:06:01.911Z,27.87
2018-05-18T11:06:33.976Z,27.86
2018-05-18T11:07:06.062Z,27.91
2018-05-18T11:07:38.085Z,27.94
2018-05-18T11:08:10.173Z,27.93
2018-05-18T11:08:42.161Z,27.96
2018-05-18T11:09:14.160Z,28.01
2018-05-18T11:09:46.188Z,28.03
2018-05-18T11:10:18.256Z,28.03
2018-05-18T11:10:50.306Z,27.98
2018-05-18T11:11:23.078Z,28.01
2018-05-18T11:11:55.087Z,28.16
2018-05-18T11:12:27.136Z,28.2
2018-05-18T11:12:59.242Z,28.12
2018-05-18T11:13:31.301Z,28.18
2018-05-18T11:14:03.471Z,28.36
2018-05-18T11:14:35.522Z,28.3
2018-05-18T11:15:07.587Z,28.31
2018-05-18T11:15:39.610Z,28.41
2018-05-18T11:16:11.655Z,28.43
2018-05-18T11:16:43.678Z,28.49
2018-05-18T11:17:15.687Z,28.49
2018-05-18T11:17:47.696Z,28.46
2018-05-18T11:18:19.717Z,28.53
2018-05-18T11:18:51.888Z,28.51
2018-05-18T11:19:23.867Z,28.58
2018-05-18T11:19:55.905Z,28.67
2018-05-18T11:20:27.964Z,28.64
2018-05-18T11:21:00.028Z,28.48
2018-05-18T11:21:32.112Z,28.61
2018-05-18T11:22:04.150Z,28.64
2018-05-18T11:22:36.197Z,28.65
2018-05-18T11:23:08.199Z,28.61
2018-05-18T11:23:40.262Z,28.55
2018-05-18T11:24:12.316Z,28.64
2018-05-18T11:24:44.461Z,28.61
2018-05-18T11:25:16.570Z,28.53
2018-05-18T11:25:48.584Z,28.58
2018-05-18T11:26:20.753Z,28.55
2018-05-18T11:26:52.963Z,28.6
2018-05-18T11:27:24.993Z,28.63
2018-05-18T11:27:57.043Z,28.63
2018-05-18T11:28:29.264Z,28.67
2018-05-18T11:29:01.933Z,28.61
2018-05-18T11:29:33.953Z,28.61
2018-05-18T11:30:05.971Z,28.72
2018-05-18T11:30:37.981Z,28.72
2018-05-18T11:31:10.032Z,28.85
2018-05-18T11:31:42.146Z,28.92
2018-05-18T11:32:15.064Z,28.83
2018-05-18T11:32:47.119Z,28.9
2018-05-18T11:33:19.144Z,28.95
2018-05-18T11:33:51.212Z,29.03
2018-05-18T11:34:23.259Z,29.11
2018-05-18T11:34:55.218Z,29.13
2018-05-18T11:35:27.235Z,29.23
2018-05-18T11:35:59.245Z,29.18
2018-05-18T11:36:31.307Z,29.29
2018-05-18T11:37:03.643Z,29.24
2018-05-18T11:37:35.939Z,29.24
2018-05-18T11:38:08.141Z,29.29
2018-05-18T11:38:40.139Z,29.33
2018-05-18T11:39:12.271Z,29.42
2018-05-18T11:39:44.363Z,29.45
2018-05-18T11:40:16.405Z,29.45
2018-05-18T11:40:48.466Z,29.48
2018-05-18T11:41:20.490Z,29.65
2018-05-18T11:41:52.831Z,29.52
2018-05-18T11:42:24.919Z,29.65
2018-05-18T11:42:56.927Z,29.7
2018-05-18T11:43:28.965Z,29.75
2018-05-18T11:44:01.020Z,29.85
2018-05-18T11:44:33.042Z,29.84
2018-05-18T11:45:05.088Z,29.87
2018-05-18T11:45:37.131Z,30.02
2018-05-18T11:46:09.181Z,30.03
2018-05-18T11:46:41.201Z,30.06
2018-05-18T11:47:13.236Z,30.06
2018-05-18T11:47:45.239Z,30.21
2018-05-18T11:48:17.295Z,30.18
2018-05-18T11:48:49.354Z,30.24
2018-05-18T11:49:21.401Z,30.21
2018-05-18T11:49:53.554Z,30.18
2018-05-18T11:50:25.543Z,30.29
2018-05-18T11:50:57.604Z,30.32
2018-05-18T11:51:29.639Z,30.45
2018-05-18T11:52:01.669Z,30.48
2018-05-18T11:52:33.679Z,30.54
2018-05-18T11:53:05.916Z,30.47
2018-05-18T11:53:38.092Z,30.59
2018-05-18T11:54:10.056Z,30.47
2018-05-18T11:54:42.314Z,30.6
2018-05-18T11:55:14.349Z,30.63
2018-05-18T11:55:46.342Z,30.69
2018-05-18T11:56:18.389Z,30.7
2018-05-18T11:56:50.429Z,30.7
2018-05-18T11:57:22.612Z,30.75
2018-05-18T11:57:54.729Z,30.78
2018-05-18T11:58:26.781Z,30.85
2018-05-18T11:58:58.818Z,30.84
2018-05-18T11:59:30.887Z,30.78
2018-05-18T12:00:02.909Z,30.88
2018-05-18T12:00:34.961Z,30.81
2018-05-18T12:01:07.004Z,30.84
2018-05-18T12:01:39.018Z,30.89
2018-05-18T12:02:11.036Z,30.93
2018-05-18T12:02:43.078Z,30.88
2018-05-18T12:03:15.126Z,30.91
2018-05-18T12:03:47.167Z,30.86
2018-05-18T12:04:19.172Z,30.84
2018-05-18T12:04:51.360Z,30.88
2018-05-18T12:05:23.379Z,30.85
2018-05-18T12:05:55.362Z,30.88
2018-05-18T12:06:27.399Z,30.96
2018-05-18T12:06:59.393Z,30.85
2018-05-18T12:07:31.431Z,30.85
2018-05-18T12:08:03.430Z,30.82
2018-05-18T12:08:35.496Z,30.73
2018-05-18T12:09:07.490Z,30.77
2018-05-18T12:09:39.507Z,30.84
2018-05-18T12:10:11.534Z,30.84
2018-05-18T12:10:43.553Z,30.88
2018-05-18T12:11:15.600Z,30.88
2018-05-18T12:11:47.669Z,30.99
2018-05-18T12:12:19.693Z,31.04
2018-05-18T12:12:51.741Z,31.12
2018-05-18T12:13:23.771Z,31.16
2018-05-18T12:13:55.760Z,31.28
2018-05-18T12:14:27.848Z,31.28
2018-05-18T12:14:59.924Z,31.26
2018-05-18T12:15:31.925Z,31.37
2018-05-18T12:16:03.979Z,31.44
2018-05-18T12:16:36.032Z,31.38
2018-05-18T12:17:08.075Z,31.41
2018-05-18T12:17:40.094Z,31.34
2018-05-18T12:18:12.185Z,31.37
2018-05-18T12:18:44.341Z,31.41
2018-05-18T12:19:16.447Z,31.38
2018-05-18T12:19:48.499Z,31.5
2018-05-18T12:20:20.625Z,31.59
2018-05-18T12:20:52.933Z,31.65
2018-05-18T12:21:25.055Z,31.67
2018-05-18T12:21:57.101Z,31.71
2018-05-18T12:22:29.161Z,31.75
2018-05-18T12:23:01.210Z,31.87
2018-05-18T12:23:33.245Z,31.97
2018-05-18T12:24:05.253Z,31.94
2018-05-18T12:24:37.274Z,32
2018-05-18T12:25:09.346Z,31.98
2018-05-18T12:25:41.415Z,32.01
2018-05-18T12:26:13.591Z,32.05
2018-05-18T12:26:45.743Z,32.1
2018-05-18T12:27:17.823Z,32.19
2018-05-18T12:27:49.833Z,32.24
2018-05-18T12:28:21.825Z,32.23
2018-05-18T12:28:53.850Z,32.23
2018-05-18T12:29:25.874Z,32.35
2018-05-18T12:29:57.888Z,32.42
2018-05-18T12:30:30.015Z,32.43
2018-05-18T12:31:02.055Z,32.49
2018-05-18T12:31:35.004Z,32.5
2018-05-18T12:32:07.229Z,32.68
2018-05-18T12:32:39.206Z,32.62
2018-05-18T12:33:11.189Z,32.71
2018-05-18T12:33:43.235Z,32.69
2018-05-18T12:34:15.277Z,32.84
2018-05-18T12:34:47.423Z,32.8
2018-05-18T12:35:19.527Z,32.9
2018-05-18T12:35:52.236Z,32.96
2018-05-18T12:36:24.257Z,32.98
2018-05-18T12:36:56.427Z,32.93
2018-05-18T12:37:28.637Z,33.03
2018-05-18T12:38:00.697Z,33.12
2018-05-18T12:38:32.726Z,33.12
2018-05-18T12:39:04.745Z,33.29
2018-05-18T12:39:36.752Z,33.28
2018-05-18T12:40:08.759Z,33.31
2018-05-18T12:40:40.828Z,33.28
2018-05-18T12:41:12.859Z,33.32
2018-05-18T12:41:44.963Z,33.4
2018-05-18T12:42:16.970Z,33.41
2018-05-18T12:42:49.056Z,33.46
2018-05-18T12:43:21.089Z,33.52
2018-05-18T12:43:53.103Z,33.5
2018-05-18T12:44:25.160Z,33.48
2018-05-18T12:44:57.837Z,33.61
2018-05-18T12:45:29.910Z,33.61
2018-05-18T12:46:02.393Z,33.59
2018-05-18T12:46:34.454Z,33.66
2018-05-18T12:47:06.983Z,33.73
2018-05-18T12:47:38.975Z,33.83
2018-05-18T12:48:11.001Z,33.87
2018-05-18T12:48:43.097Z,33.84
2018-05-18T12:49:15.122Z,33.87
2018-05-18T12:49:47.165Z,33.95
2018-05-18T12:50:19.223Z,34.05
2018-05-18T12:50:51.310Z,34.12
2018-05-18T12:51:23.346Z,34.15
2018-05-18T12:51:55.374Z,34.21
2018-05-18T12:52:27.396Z,34.27
2018-05-18T12:52:59.383Z,34.37
2018-05-18T12:53:31.378Z,34.48
2018-05-18T12:54:03.461Z,34.56
2018-05-18T12:54:35.588Z,34.66
2018-05-18T12:55:07.585Z,34.64
2018-05-18T12:55:39.637Z,34.78
2018-05-18T12:56:11.665Z,34.83
2018-05-18T12:56:43.669Z,34.91
2018-05-18T12:57:15.672Z,34.96
2018-05-18T12:57:47.670Z,34.97
2018-05-18T12:58:19.759Z,35.02
2018-05-18T12:58:51.771Z,35.12
2018-05-18T12:59:23.884Z,35.11
2018-05-18T12:59:55.961Z,35.21
2018-05-18T13:00:27.997Z,35.24
2018-05-18T13:01:00.046Z,35.24
2018-05-18T13:01:32.069Z,35.35
2018-05-18T13:02:04.102Z,35.31
2018-05-18T13:02:36.055Z,35.39
2018-05-18T13:03:08.075Z,35.38
2018-05-18T13:03:40.107Z,35.39
2018-05-18T13:04:12.172Z,35.43
2018-05-18T13:04:44.148Z,35.45
2018-05-18T13:05:16.184Z,35.47
2018-05-18T13:05:48.256Z,35.52
2018-05-18T13:06:20.259Z,35.6
2018-05-18T13:06:52.276Z,35.61
2018-05-18T13:07:24.417Z,35.62
2018-05-18T13:07:56.421Z,35.74
2018-05-18T13:08:28.460Z,35.76
2018-05-18T13:09:00.464Z,35.68
2018-05-18T13:09:32.496Z,35.79
2018-05-18T13:10:04.520Z,35.72
2018-05-18T13:10:36.517Z,35.83
2018-05-18T13:11:08.560Z,35.83
2018-05-18T13:11:40.609Z,35.84
2018-05-18T13:12:16.328Z,35.92
2018-05-18T13:12:48.328Z,36.04
2018-05-18T13:13:20.436Z,36.02
2018-05-18T13:13:52.627Z,36.08
2018-05-18T13:14:24.625Z,36.05
2018-05-18T13:14:56.658Z,36.09
2018-05-18T13:15:28.690Z,36.09
2018-05-18T13:16:01.194Z,36.22
2018-05-18T13:16:34.752Z,36.26
2018-05-18T13:17:07.066Z,36.21
2018-05-18T13:17:39.176Z,36.3
2018-05-18T13:18:11.319Z,36.22
2018-05-18T13:18:43.341Z,36.36
2018-05-18T13:19:15.372Z,36.37
2018-05-18T13:19:47.375Z,36.4
2018-05-18T13:20:19.423Z,36.4
2018-05-18T13:20:51.530Z,36.41
2018-05-18T13:21:23.518Z,36.41
2018-05-18T13:21:55.515Z,36.44
2018-05-18T13:22:27.552Z,36.53
2018-05-18T13:22:59.602Z,36.52
2018-05-18T13:23:31.679Z,36.56
2018-05-18T13:24:03.670Z,36.53
2018-05-18T13:24:35.719Z,36.61
2018-05-18T13:25:07.804Z,36.68
2018-05-18T13:25:39.779Z,36.62
2018-05-18T13:26:12.594Z,36.63
2018-05-18T13:26:44.625Z,36.56
2018-05-18T13:27:16.717Z,36.63
2018-05-18T13:27:49.507Z,36.47
2018-05-18T13:28:21.537Z,36.25
2018-05-18T13:28:53.572Z,36.14
2018-05-18T13:29:25.626Z,35.99
2018-05-18T13:29:57.764Z,35.79
2018-05-18T13:30:29.851Z,35.82
2018-05-18T13:31:01.888Z,35.98
2018-05-18T13:31:33.902Z,36.12
2018-05-18T13:32:05.929Z,36.12
2018-05-18T13:32:38.029Z,36.12
2018-05-18T13:33:10.108Z,36.22
2018-05-18T13:33:42.481Z,36.24
2018-05-18T13:34:14.493Z,36.25
2018-05-18T13:34:46.535Z,36.26
2018-05-18T13:35:18.580Z,36.26
2018-05-18T13:35:50.641Z,36.12
2018-05-18T13:36:22.793Z,36.06
2018-05-18T13:36:54.852Z,35.96
2018-05-18T13:37:26.848Z,35.89
2018-05-18T13:37:58.870Z,35.77
2018-05-18T13:38:31.040Z,35.57
2018-05-18T13:39:03.171Z,35.47
2018-05-18T13:39:35.234Z,35.39
2018-05-18T13:40:07.267Z,35.23
2018-05-18T13:40:39.335Z,35.16
2018-05-18T13:41:11.414Z,35.06
2018-05-18T13:41:43.456Z,35.05
2018-05-18T13:42:15.498Z,34.94
2018-05-18T13:42:47.574Z,35.04
2018-05-18T13:43:19.629Z,35.18
2018-05-18T13:43:51.646Z,35.23
2018-05-18T13:44:23.772Z,35.35
2018-05-18T13:44:55.956Z,35.46
2018-05-18T13:45:27.975Z,35.57
2018-05-18T13:46:00.036Z,35.61
2018-05-18T13:46:32.079Z,35.72
2018-05-18T13:47:04.101Z,35.72
2018-05-18T13:47:36.133Z,35.76
2018-05-18T13:48:08.148Z,35.84
2018-05-18T13:48:40.252Z,35.9
2018-05-18T13:49:12.261Z,35.92
2018-05-18T13:49:44.295Z,35.94
2018-05-18T13:50:16.304Z,35.96
2018-05-18T13:50:48.277Z,35.96
2018-05-18T13:51:20.968Z,36.04
2018-05-18T13:51:52.974Z,36.02
2018-05-18T13:52:25.019Z,36.15
2018-05-18T13:52:57.068Z,36.14
2018-05-18T13:53:29.070Z,36.15
2018-05-18T13:54:01.104Z,36.21
2018-05-18T13:54:33.095Z,36.3
2018-05-18T13:55:05.153Z,36.28
2018-05-18T13:55:37.159Z,36.36
2018-05-18T13:56:09.154Z,36.32
2018-05-18T13:56:41.286Z,36.37
2018-05-18T13:57:13.451Z,36.41
2018-05-18T13:57:45.628Z,36.51
2018-05-18T13:58:17.691Z,36.56
2018-05-18T13:58:49.857Z,36.52
2018-05-18T13:59:21.973Z,36.58
2018-05-18T13:59:54.004Z,36.65
2018-05-18T14:00:26.020Z,36.63
2018-05-18T14:00:58.054Z,36.78
2018-05-18T14:01:30.063Z,36.67
2018-05-18T14:02:02.043Z,36.65
2018-05-18T14:02:34.739Z,36.51
2018-05-18T14:03:06.745Z,36.52
2018-05-18T14:03:38.764Z,36.67
2018-05-18T14:04:10.796Z,36.62
2018-05-18T14:04:42.831Z,36.67
2018-05-18T14:05:14.858Z,36.68
2018-05-18T14:05:46.907Z,36.73
2018-05-18T14:06:18.980Z,36.65
2018-05-18T14:06:50.975Z,36.71
2018-05-18T14:07:23.045Z,36.73
2018-05-18T14:07:55.055Z,36.8
2018-05-18T14:08:27.134Z,36.8
2018-05-18T14:08:59.238Z,36.86